Navios Pollux — 3FPO2 — position and weather

sailwx.info

Track history (hours):
 
Tides and Currents Weather Stations Pressure Air Temp Water Temp Dewpoint Dewpoint Depression Visibility Wind Speed Wind Dir Waves Ship Positions

Navios Pollux

Last reported at 2018-Apr-16 21:33 UTC. Time now 2018-Apr-23 21:15 UTC.
Position N 16°52' W 061°04'.

Length 292 m; draft 17.5 m.

Type: Cargo ship. MMSI: 370290000.

Date/timePositionNaut miles runAvg speedWind from/ knotsBaromVisibWave heightAir tempDewpointWater temp
2018-Apr-16 21:33N 16°52' W 061°04'0 9.5
2018-Apr-16 21:30N 16°52' W 061°05'5 9.5
2018-Apr-16 21:00N 16°50' W 061°09'5 9.8
2018-Apr-16 20:30N 16°48' W 061°14'5 9.7
2018-Apr-16 19:59N 16°46' W 061°19'4 9.1
2018-Apr-16 19:30N 16°45' W 061°23'5 9.1
2018-Apr-16 18:58N 16°43' W 061°28'4 9.0
2018-Apr-16 18:30N 16°41' W 061°32'5 9.1
2018-Apr-16 18:00N 16°40' W 061°36'5 9.2
2018-Apr-16 17:30N 16°38' W 061°40'5 9.3
2018-Apr-16 17:00N 16°36' W 061°45'5 9.4
2018-Apr-16 16:30N 16°34' W 061°49'5 9.2
2018-Apr-16 16:00N 16°32' W 061°54'5 9.2
2018-Apr-16 15:30N 16°31' W 061°58'5 9.5
2018-Apr-16 15:00N 16°29' W 062°03'5 9.5
2018-Apr-16 14:30N 16°27' W 062°08'5 9.8
2018-Apr-16 14:00N 16°26' W 062°12'5 9.8
2018-Apr-16 13:30N 16°24' W 062°17'5 9.8
2018-Apr-16 13:00N 16°22' W 062°22'510.0
2018-Apr-16 12:30N 16°20' W 062°26'510.3
2018-Apr-16 12:00N 16°17' W 062°31'510.2
2018-Apr-16 11:30N 16°15' W 062°36'5 9.7
2018-Apr-16 10:58N 16°13' W 062°41'4 9.7
2018-Apr-16 10:30N 16°11' W 062°45'5 9.8
2018-Apr-16 10:00N 16°09' W 062°50'5 9.7
2018-Apr-16 09:29N 16°07' W 062°55'  
2018-Apr-08 18:45N 16°07' W 062°57'311.2
2018-Apr-08 18:29N 16°08' W 062°55'511.3
2018-Apr-08 18:01N 16°10' W 062°49'611.4
2018-Apr-08 17:31N 16°12' W 062°44'611.5
2018-Apr-08 16:58N 16°14' W 062°38'511.1
2018-Apr-08 16:30N 16°17' W 062°33'511.1
2018-Apr-08 16:01N 16°19' W 062°28'611.3
2018-Apr-08 15:30N 16°21' W 062°22'611.8
2018-Apr-08 15:00N 16°23' W 062°16'611.9
2018-Apr-08 14:31N 16°26' W 062°11'612.1
2018-Apr-08 14:00N 16°28' W 062°05'611.9
2018-Apr-08 13:31N 16°29' W 061°59'511.0
2018-Apr-08 13:01N 16°33' W 061°54'611.4
2018-Apr-08 12:31N 16°35' W 061°49'611.6
2018-Apr-08 12:01N 16°37' W 061°44'611.6
2018-Apr-08 11:31N 16°40' W 061°38'611.7
2018-Apr-08 11:00N 16°43' W 061°33'612.0
2018-Apr-08 10:29N 16°45' W 061°27'611.8
2018-Apr-08 10:01N 16°48' W 061°22'611.7
2018-Apr-08 09:31N 16°50' W 061°16'611.5
2018-Apr-08 09:01N 16°53' W 061°11'611.7
2018-Apr-08 08:30N 16°55' W 061°05'611.8
2018-Apr-08 08:00N 16°57' W 060°59'611.9
2018-Apr-08 07:30N 17°00' W 060°54'  
Track history (hours):
 
Tides and Currents Weather Stations Pressure Air Temp Water Temp Dewpoint Dewpoint Depression Visibility Wind Speed Wind Dir Waves Ship Positions

Navios Pollux

Last reported at 2018-Apr-16 21:33 UTC. Time now 2018-Apr-23 21:15 UTC.
Position N 16°52' W 061°04'.

Length 292 m; draft 17.5 m.

Type: Cargo ship. MMSI: 370290000.

Date/timePositionNaut miles runAvg speedWind from/ knotsBaromVisibWave heightAir tempDewpointWater temp
2018-Apr-16 21:33N 16°52' W 061°04'0 9.5
2018-Apr-16 21:30N 16°52' W 061°05'5 9.5
2018-Apr-16 21:00N 16°50' W 061°09'5 9.8
2018-Apr-16 20:30N 16°48' W 061°14'5 9.7
2018-Apr-16 19:59N 16°46' W 061°19'4 9.1
2018-Apr-16 19:30N 16°45' W 061°23'5 9.1
2018-Apr-16 18:58N 16°43' W 061°28'4 9.0
2018-Apr-16 18:30N 16°41' W 061°32'5 9.1
2018-Apr-16 18:00N 16°40' W 061°36'5 9.2
2018-Apr-16 17:30N 16°38' W 061°40'5 9.3
2018-Apr-16 17:00N 16°36' W 061°45'5 9.4
2018-Apr-16 16:30N 16°34' W 061°49'5 9.2
2018-Apr-16 16:00N 16°32' W 061°54'5 9.2
2018-Apr-16 15:30N 16°31' W 061°58'5 9.5
2018-Apr-16 15:00N 16°29' W 062°03'5 9.5
2018-Apr-16 14:30N 16°27' W 062°08'5 9.8
2018-Apr-16 14:00N 16°26' W 062°12'5 9.8
2018-Apr-16 13:30N 16°24' W 062°17'5 9.8
2018-Apr-16 13:00N 16°22' W 062°22'510.0
2018-Apr-16 12:30N 16°20' W 062°26'510.3
2018-Apr-16 12:00N 16°17' W 062°31'510.2
2018-Apr-16 11:30N 16°15' W 062°36'5 9.7
2018-Apr-16 10:58N 16°13' W 062°41'4 9.7
2018-Apr-16 10:30N 16°11' W 062°45'5 9.8
2018-Apr-16 10:00N 16°09' W 062°50'5 9.7
2018-Apr-16 09:29N 16°07' W 062°55'  
2018-Apr-08 18:45N 16°07' W 062°57'311.2
2018-Apr-08 18:29N 16°08' W 062°55'511.3
2018-Apr-08 18:01N 16°10' W 062°49'611.4
2018-Apr-08 17:31N 16°12' W 062°44'611.5
2018-Apr-08 16:58N 16°14' W 062°38'511.1
2018-Apr-08 16:30N 16°17' W 062°33'511.1
2018-Apr-08 16:01N 16°19' W 062°28'611.3
2018-Apr-08 15:30N 16°21' W 062°22'611.8
2018-Apr-08 15:00N 16°23' W 062°16'611.9
2018-Apr-08 14:31N 16°26' W 062°11'612.1
2018-Apr-08 14:00N 16°28' W 062°05'611.9
2018-Apr-08 13:31N 16°29' W 061°59'511.0
2018-Apr-08 13:01N 16°33' W 061°54'611.4
2018-Apr-08 12:31N 16°35' W 061°49'611.6
2018-Apr-08 12:01N 16°37' W 061°44'611.6
2018-Apr-08 11:31N 16°40' W 061°38'611.7
2018-Apr-08 11:00N 16°43' W 061°33'612.0
2018-Apr-08 10:29N 16°45' W 061°27'611.8
2018-Apr-08 10:01N 16°48' W 061°22'611.7
2018-Apr-08 09:31N 16°50' W 061°16'611.5
2018-Apr-08 09:01N 16°53' W 061°11'611.7
2018-Apr-08 08:30N 16°55' W 061°05'611.8
2018-Apr-08 08:00N 16°57' W 060°59'611.9
2018-Apr-08 07:30N 17°00' W 060°54'  

Dump ship's entire track history